Time;durP1;ratioP1;P1;durP2;ratioP2;P2;SDS_P1;SDS_P2;PMS_P1;PMS_P2;Temp;Humidity;BMP_temperature;BMP_pressure;BME280_temperature;BME280_humidity;BME280_pressure;Samples;Min_cycle;Max_cycle;Signal;HPM_P1;HPM_P2
2021/09/17 00:01:56;;;;;;;4.10;1.88;;;17.20;74.30;;;;;;4954512;29;20024;-70
2021/09/17 00:04:22;;;;;;;2.97;2.20;;;17.20;74.50;;;;;;4949628;29;20400;-71
2021/09/17 00:06:47;;;;;;;2.75;1.85;;;17.20;74.40;;;;;;4948932;29;20155;-71
2021/09/17 00:09:15;;;;;;;3.80;1.85;;;17.20;74.40;;;;;;4953704;29;20074;-71
2021/09/17 00:11:41;;;;;;;3.40;2.00;;;17.10;74.60;;;;;;4953627;29;20015;-71
2021/09/17 00:14:06;;;;;;;2.75;2.00;;;17.20;74.80;;;;;;4954176;29;20027;-70
2021/09/17 00:16:32;;;;;;;2.83;2.22;;;17.10;74.80;;;;;;4953793;29;20512;-71
2021/09/17 00:18:58;;;;;;;3.40;2.40;;;17.10;74.70;;;;;;4953208;29;20035;-70
2021/09/17 00:21:23;;;;;;;3.30;2.42;;;17.10;74.70;;;;;;4953499;29;20031;-71
2021/09/17 00:23:49;;;;;;;2.45;2.08;;;17.10;75.10;;;;;;4953640;29;20034;-71
2021/09/17 00:26:15;;;;;;;2.10;1.85;;;17.10;75.00;;;;;;4953866;29;20067;-71
2021/09/17 00:28:40;;;;;;;3.35;2.05;;;17.10;75.20;;;;;;4954005;29;20019;-71
2021/09/17 00:31:06;;;;;;;3.92;2.05;;;17.10;75.20;;;;;;4953388;28;20396;-71
2021/09/17 00:33:32;;;;;;;2.28;1.92;;;17.10;75.20;;;;;;4953049;29;20051;-71
2021/09/17 00:35:57;;;;;;;2.83;2.35;;;17.10;75.30;;;;;;4947176;29;20489;-71
2021/09/17 00:38:23;;;;;;;3.95;2.50;;;17.10;75.30;;;;;;4953555;29;20035;-71
2021/09/17 00:40:49;;;;;;;3.20;2.28;;;17.10;75.10;;;;;;4954048;29;20023;-70
2021/09/17 00:43:16;;;;;;;2.83;2.22;;;17.10;75.20;;;;;;4953273;29;20031;-70
2021/09/17 00:45:44;;;;;;;2.50;1.90;;;17.00;75.20;;;;;;4953520;29;20396;-70
2021/09/17 00:48:10;;;;;;;2.90;2.15;;;17.00;75.20;;;;;;4953181;29;20047;-70
2021/09/17 00:50:36;;;;;;;3.55;2.30;;;17.00;75.40;;;;;;4953678;29;20444;-70
2021/09/17 00:53:02;;;;;;;2.33;2.10;;;17.00;75.70;;;;;;4953758;29;20042;-70
2021/09/17 00:55:27;;;;;;;5.40;2.20;;;16.90;75.70;;;;;;4953495;29;20030;-70
2021/09/17 00:57:53;;;;;;;2.63;2.03;;;17.00;75.70;;;;;;4953337;29;20031;-71
2021/09/17 01:00:19;;;;;;;3.88;2.22;;;17.00;75.60;;;;;;4953343;29;20027;-70
2021/09/17 01:02:45;;;;;;;3.03;1.67;;;17.00;75.60;;;;;;4953072;29;20035;-70
2021/09/17 01:05:12;;;;;;;2.42;1.83;;;16.90;75.70;;;;;;4951561;29;20024;-70
2021/09/17 01:07:38;;;;;;;3.60;2.00;;;16.90;75.70;;;;;;4953547;29;20057;-71
2021/09/17 01:10:05;;;;;;;2.40;2.13;;;16.80;75.40;;;;;;4946927;29;20521;-70
2021/09/17 01:12:31;;;;;;;3.17;2.35;;;16.80;75.40;;;;;;4952857;29;20039;-71
2021/09/17 01:14:57;;;;;;;2.78;1.90;;;16.80;75.60;;;;;;4953295;29;20082;-71
2021/09/17 01:17:34;;;;;;;2.67;1.70;;;16.80;75.60;;;;;;4952896;29;20089;-71
2021/09/17 01:20:00;;;;;;;2.28;2.00;;;16.70;75.50;;;;;;4953763;29;20070;-70
2021/09/17 01:22:26;;;;;;;3.03;1.77;;;16.80;75.80;;;;;;4953000;29;20059;-71
2021/09/17 01:24:52;;;;;;;2.03;1.80;;;16.70;75.60;;;;;;4953085;29;20106;-70
2021/09/17 01:27:18;;;;;;;3.28;1.80;;;16.70;75.60;;;;;;4953150;29;20110;-71
2021/09/17 01:29:44;;;;;;;2.13;1.85;;;16.70;75.60;;;;;;4952997;29;20081;-71
2021/09/17 01:32:09;;;;;;;2.75;1.80;;;16.70;75.70;;;;;;4952980;29;20035;-70
2021/09/17 01:34:35;;;;;;;2.85;1.70;;;16.70;75.80;;;;;;4950140;29;20036;-70
2021/09/17 01:37:01;;;;;;;2.95;1.80;;;16.70;76.00;;;;;;4952960;29;20504;-70
2021/09/17 01:39:27;;;;;;;2.53;1.83;;;16.60;75.80;;;;;;4952951;29;20031;-70
2021/09/17 01:41:53;;;;;;;2.70;1.70;;;16.60;75.90;;;;;;4953238;28;20030;-71
2021/09/17 01:44:18;;;;;;;2.10;1.90;;;16.60;75.70;;;;;;4956545;29;20031;-71
2021/09/17 01:46:44;;;;;;;3.05;2.08;;;16.50;75.80;;;;;;4956466;29;20596;-71
2021/09/17 01:49:10;;;;;;;2.47;1.60;;;16.50;75.80;;;;;;4956359;29;20031;-70
2021/09/17 01:51:36;;;;;;;3.30;2.10;;;16.50;76.10;;;;;;4956215;29;20063;-71
2021/09/17 01:54:06;;;;;;;2.08;1.48;;;16.50;75.90;;;;;;4956270;29;20031;-71
2021/09/17 01:56:33;;;;;;;2.33;1.58;;;16.50;75.90;;;;;;4956247;29;20033;-71
2021/09/17 01:58:59;;;;;;;3.30;1.70;;;16.50;75.80;;;;;;4956685;29;20055;-70
2021/09/17 02:01:25;;;;;;;2.92;1.80;;;16.50;76.10;;;;;;4955715;29;20059;-70
2021/09/17 02:03:51;;;;;;;2.17;1.80;;;16.40;76.20;;;;;;4953628;29;20015;-70
2021/09/17 02:06:22;;;;;;;1.92;1.42;;;16.50;75.90;;;;;;4947513;29;20507;-71
2021/09/17 02:08:48;;;;;;;3.03;1.67;;;16.50;76.10;;;;;;4955916;29;20078;-71
2021/09/17 02:11:14;;;;;;;3.03;1.60;;;16.40;76.00;;;;;;4956051;29;20035;-71
2021/09/17 02:13:40;;;;;;;1.95;1.45;;;16.40;76.00;;;;;;4956405;29;20081;-70
2021/09/17 02:16:05;;;;;;;2.45;1.80;;;16.40;75.90;;;;;;4955465;29;20039;-70
2021/09/17 02:18:32;;;;;;;3.08;1.75;;;16.40;75.80;;;;;;4955676;29;20054;-71
2021/09/17 02:20:58;;;;;;;2.40;1.60;;;16.30;75.90;;;;;;4955817;29;20075;-71
2021/09/17 02:23:23;;;;;;;2.42;1.73;;;16.30;76.30;;;;;;4955668;29;20039;-71
2021/09/17 02:25:49;;;;;;;2.45;1.98;;;16.30;76.40;;;;;;4956297;29;20023;-71
2021/09/17 02:28:15;;;;;;;2.30;1.83;;;16.30;76.40;;;;;;4955600;29;20114;-70
2021/09/17 02:30:41;;;;;;;3.15;1.75;;;16.20;76.30;;;;;;4955111;29;20024;-70
2021/09/17 02:33:06;;;;;;;3.17;1.60;;;16.20;76.40;;;;;;4935917;29;20424;-71
2021/09/17 02:35:33;;;;;;;1.98;1.48;;;16.20;76.30;;;;;;4955334;29;20041;-71
2021/09/17 02:37:58;;;;;;;2.22;1.67;;;16.20;76.70;;;;;;4956065;29;20035;-70
2021/09/17 02:40:25;;;;;;;2.85;1.77;;;16.20;76.60;;;;;;4955227;29;20039;-71
2021/09/17 02:42:50;;;;;;;4.40;3.05;;;16.10;76.10;;;;;;4955304;29;20034;-71
2021/09/17 02:45:16;;;;;;;4.97;3.17;;;16.10;76.50;;;;;;4937791;29;20122;-70
2021/09/17 02:47:43;;;;;;;6.22;3.35;;;16.00;76.80;;;;;;4945625;29;20030;-70
2021/09/17 02:50:09;;;;;;;5.25;3.28;;;15.90;76.90;;;;;;4955656;29;20091;-71
2021/09/17 02:52:35;;;;;;;4.50;2.90;;;15.90;77.40;;;;;;4955514;29;20050;-71
2021/09/17 02:55:01;;;;;;;5.10;3.15;;;15.80;77.50;;;;;;4954113;28;20445;-70
2021/09/17 02:57:27;;;;;;;4.25;3.15;;;15.80;77.90;;;;;;4955040;29;20048;-70
2021/09/17 02:59:53;;;;;;;4.75;3.03;;;15.70;77.90;;;;;;4954756;29;20102;-70
2021/09/17 03:02:19;;;;;;;6.30;3.35;;;15.80;78.20;;;;;;4951866;29;20030;-70
2021/09/17 03:04:45;;;;;;;3.63;2.75;;;15.80;78.10;;;;;;4955353;29;20390;-70
2021/09/17 03:07:10;;;;;;;3.80;2.78;;;15.80;77.90;;;;;;4954733;29;20035;-70
2021/09/17 03:09:36;;;;;;;5.18;2.85;;;15.80;78.00;;;;;;4954880;29;20027;-71
2021/09/17 03:12:03;;;;;;;5.00;3.42;;;15.80;78.00;;;;;;4954956;29;20419;-71
2021/09/17 03:14:28;;;;;;;5.28;2.92;;;15.80;78.20;;;;;;4954560;29;20042;-71
2021/09/17 03:16:54;;;;;;;5.05;3.03;;;15.70;78.10;;;;;;4955246;29;20027;-71
2021/09/17 03:19:20;;;;;;;4.47;2.42;;;15.70;78.60;;;;;;4954715;29;20034;-71
2021/09/17 03:21:45;;;;;;;4.55;3.00;;;15.60;78.00;;;;;;4954565;29;20055;-71
2021/09/17 03:24:12;;;;;;;4.03;2.90;;;15.60;78.40;;;;;;4953880;29;20043;-72
2021/09/17 03:26:38;;;;;;;4.13;3.00;;;15.60;78.00;;;;;;4954292;29;20026;-72
2021/09/17 03:29:04;;;;;;;3.40;2.90;;;15.60;78.00;;;;;;4955256;29;20038;-70
2021/09/17 03:31:30;;;;;;;3.45;2.70;;;15.60;78.00;;;;;;4954556;29;20031;-71
2021/09/17 03:33:58;;;;;;;3.50;2.67;;;15.60;78.40;;;;;;4954194;29;20094;-70
2021/09/17 03:36:28;;;;;;;3.13;2.67;;;15.60;78.50;;;;;;4954497;29;20038;-71
2021/09/17 03:38:55;;;;;;;3.80;2.67;;;15.50;78.00;;;;;;4954574;29;20024;-71
2021/09/17 03:41:21;;;;;;;4.55;2.80;;;15.60;78.00;;;;;;4954119;29;20028;-71
2021/09/17 03:43:47;;;;;;;4.90;2.90;;;15.50;77.90;;;;;;4954925;29;20037;-70
2021/09/17 03:46:13;;;;;;;4.10;3.00;;;15.40;77.90;;;;;;4954301;29;20090;-71
2021/09/17 03:48:38;;;;;;;5.13;2.72;;;15.30;78.00;;;;;;4954226;29;20038;-71
2021/09/17 03:51:05;;;;;;;7.05;3.38;;;15.30;78.30;;;;;;4954223;29;20115;-71
2021/09/17 03:53:31;;;;;;;9.48;3.38;;;15.30;78.70;;;;;;4954143;29;20037;-70
2021/09/17 03:55:56;;;;;;;6.60;3.67;;;15.20;79.30;;;;;;4954320;29;20019;-71
2021/09/17 03:58:22;;;;;;;7.10;3.90;;;15.20;78.90;;;;;;4954123;29;20027;-71
2021/09/17 04:00:48;;;;;;;6.32;3.55;;;15.20;79.10;;;;;;4954076;29;20050;-70
2021/09/17 04:03:13;;;;;;;11.63;3.80;;;15.10;79.60;;;;;;4952184;29;20035;-71
2021/09/17 04:05:39;;;;;;;7.40;3.33;;;15.10;79.50;;;;;;4947145;28;20077;-70
2021/09/17 04:08:05;;;;;;;7.00;3.08;;;15.10;79.40;;;;;;4954436;29;20396;-71
2021/09/17 04:10:31;;;;;;;9.23;3.70;;;15.10;79.60;;;;;;4952988;29;20107;-70
2021/09/17 04:12:56;;;;;;;5.47;3.45;;;15.10;79.70;;;;;;4953553;29;20043;-70
2021/09/17 04:15:22;;;;;;;5.15;3.33;;;15.10;79.70;;;;;;4953153;29;20266;-70
2021/09/17 04:17:48;;;;;;;5.60;3.20;;;15.10;79.70;;;;;;4953005;29;20026;-70
2021/09/17 04:20:14;;;;;;;6.05;3.35;;;15.20;80.10;;;;;;4953457;29;20035;-70
2021/09/17 04:22:40;;;;;;;4.55;3.40;;;15.30;79.60;;;;;;4953689;29;20151;-70
2021/09/17 04:25:07;;;;;;;6.90;3.28;;;15.30;79.20;;;;;;4952809;29;20028;-70
2021/09/17 04:27:33;;;;;;;5.38;3.40;;;15.20;79.40;;;;;;4953187;29;20026;-70
2021/09/17 04:29:59;;;;;;;6.13;3.67;;;15.20;79.20;;;;;;4953187;29;20031;-70
2021/09/17 04:32:24;;;;;;;5.05;3.42;;;15.20;79.40;;;;;;4952736;29;20130;-70
2021/09/17 04:34:50;;;;;;;4.65;3.30;;;15.20;79.40;;;;;;4953793;29;20477;-70
2021/09/17 04:37:17;;;;;;;5.55;3.83;;;15.20;79.60;;;;;;4953090;29;20038;-71
2021/09/17 04:39:43;;;;;;;5.30;3.55;;;15.20;79.60;;;;;;4953149;29;20110;-70
2021/09/17 04:42:10;;;;;;;7.00;3.95;;;15.30;79.50;;;;;;4952763;29;20062;-71
2021/09/17 04:44:36;;;;;;;5.88;3.90;;;15.40;79.60;;;;;;4953176;29;20031;-71
2021/09/17 04:47:01;;;;;;;4.63;3.50;;;15.40;79.30;;;;;;4949844;29;20019;-71
2021/09/17 04:49:27;;;;;;;4.15;2.97;;;15.40;79.20;;;;;;4952802;29;20062;-70
2021/09/17 04:51:53;;;;;;;4.15;3.30;;;15.40;79.20;;;;;;4952683;29;20027;-69
2021/09/17 04:54:18;;;;;;;4.53;3.00;;;15.40;79.30;;;;;;4952532;29;20396;-69
2021/09/17 04:56:44;;;;;;;5.35;3.05;;;15.30;79.00;;;;;;4951359;29;20062;-70
2021/09/17 04:59:11;;;;;;;3.92;2.95;;;15.30;78.90;;;;;;4952682;29;20027;-71
2021/09/17 05:01:37;;;;;;;4.80;2.72;;;15.20;79.40;;;;;;4943245;29;20070;-70
2021/09/17 05:04:02;;;;;;;4.03;2.72;;;15.20;79.70;;;;;;4949077;29;20023;-70
2021/09/17 05:06:30;;;;;;;3.95;2.80;;;15.20;79.20;;;;;;4952621;29;20409;-70
2021/09/17 05:08:57;;;;;;;4.10;2.70;;;15.20;79.30;;;;;;4952414;29;20019;-70
2021/09/17 05:11:23;;;;;;;3.47;2.40;;;15.20;79.60;;;;;;4950148;29;20042;-71
2021/09/17 05:13:48;;;;;;;3.75;2.28;;;15.20;79.90;;;;;;4943445;29;20051;-71
2021/09/17 05:16:14;;;;;;;3.80;2.20;;;15.20;79.40;;;;;;4950290;28;20495;-71
2021/09/17 05:18:40;;;;;;;3.25;2.38;;;15.20;79.50;;;;;;4955653;29;20027;-71
2021/09/17 05:21:05;;;;;;;3.10;2.10;;;15.20;79.20;;;;;;4956793;29;20098;-71
2021/09/17 05:23:31;;;;;;;3.70;2.47;;;15.10;79.40;;;;;;4938262;29;20063;-70
2021/09/17 05:25:57;;;;;;;3.25;2.53;;;15.20;79.60;;;;;;4957077;29;20045;-70
2021/09/17 05:28:22;;;;;;;2.97;2.08;;;15.20;79.60;;;;;;4954155;29;20451;-70
2021/09/17 05:30:48;;;;;;;3.35;2.30;;;15.10;79.30;;;;;;4949994;28;20071;-70
2021/09/17 05:33:14;;;;;;;2.97;2.22;;;15.10;79.40;;;;;;4950294;29;20051;-70
2021/09/17 05:35:40;;;;;;;3.53;2.78;;;15.10;79.20;;;;;;4956099;29;20135;-70
2021/09/17 05:38:05;;;;;;;3.88;3.08;;;14.90;79.00;;;;;;4955973;29;20046;-70
2021/09/17 05:40:31;;;;;;;4.28;3.10;;;14.80;79.20;;;;;;4956277;29;20102;-70
2021/09/17 05:42:57;;;;;;;5.38;3.50;;;14.90;79.80;;;;;;4956012;29;20031;-70
2021/09/17 05:45:22;;;;;;;4.10;3.20;;;14.90;79.80;;;;;;4955698;29;20019;-71
2021/09/17 05:47:48;;;;;;;5.13;3.47;;;14.90;79.60;;;;;;4955646;29;20484;-71
2021/09/17 05:50:14;;;;;;;4.85;3.60;;;14.80;79.60;;;;;;4955933;29;20054;-71
2021/09/17 05:52:40;;;;;;;6.80;3.60;;;14.80;80.10;;;;;;4956007;29;20051;-71
2021/09/17 05:55:07;;;;;;;6.57;2.90;;;14.80;80.10;;;;;;4955947;29;20027;-71
2021/09/17 05:57:33;;;;;;;9.63;3.35;;;14.70;80.50;;;;;;4955681;29;20481;-71
2021/09/17 05:59:58;;;;;;;12.77;3.78;;;14.70;79.90;;;;;;4955653;29;20015;-71
2021/09/17 06:02:25;;;;;;;3.58;2.88;;;14.70;80.50;;;;;;4955641;29;20039;-71
2021/09/17 06:04:50;;;;;;;4.25;3.22;;;14.70;80.80;;;;;;4956269;29;20034;-71
2021/09/17 06:07:16;;;;;;;4.25;3.10;;;14.80;80.30;;;;;;4955125;29;20110;-71
2021/09/17 06:09:42;;;;;;;4.10;3.05;;;14.80;80.20;;;;;;4955988;29;20026;-71
2021/09/17 06:12:08;;;;;;;3.63;3.22;;;14.80;80.40;;;;;;4955418;29;20031;-71
2021/09/17 06:14:33;;;;;;;4.30;3.22;;;14.90;80.10;;;;;;4955473;29;20535;-71
2021/09/17 06:16:59;;;;;;;4.38;2.97;;;14.90;79.90;;;;;;4955790;29;20038;-70
2021/09/17 06:19:25;;;;;;;4.22;3.30;;;14.90;79.40;;;;;;4955478;29;20103;-70
2021/09/17 06:21:51;;;;;;;5.43;3.03;;;14.90;79.70;;;;;;4953388;29;20038;-71
2021/09/17 06:24:16;;;;;;;4.70;3.33;;;14.90;79.60;;;;;;4951128;29;20154;-70
2021/09/17 06:26:43;;;;;;;7.80;3.88;;;14.90;79.70;;;;;;4945432;29;20024;-70
2021/09/17 06:29:09;;;;;;;4.57;3.38;;;14.90;80.30;;;;;;4946796;28;20028;-70
2021/09/17 06:31:36;;;;;;;5.03;3.17;;;14.80;79.20;;;;;;4946756;29;20547;-70
2021/09/17 06:34:03;;;;;;;7.35;3.50;;;14.90;80.20;;;;;;4948842;29;20519;-70
2021/09/17 06:36:29;;;;;;;5.05;3.17;;;14.90;79.90;;;;;;4947557;29;20034;-72
2021/09/17 06:38:55;;;;;;;5.60;3.10;;;14.80;79.90;;;;;;4945633;29;20027;-71
2021/09/17 06:41:22;;;;;;;4.97;3.17;;;14.90;80.30;;;;;;4938525;29;20027;-72
2021/09/17 06:43:48;;;;;;;5.43;3.10;;;15.00;80.30;;;;;;4940774;29;20044;-70
2021/09/17 06:46:14;;;;;;;7.43;3.42;;;15.20;80.40;;;;;;4941906;29;20027;-69
2021/09/17 06:48:40;;;;;;;5.80;3.10;;;15.20;79.70;;;;;;4944675;29;20030;-70
2021/09/17 06:51:06;;;;;;;6.03;3.25;;;15.30;79.20;;;;;;4944986;29;20032;-70
2021/09/17 06:53:32;;;;;;;4.93;2.83;;;15.20;78.50;;;;;;4944551;29;20031;-69
2021/09/17 06:55:58;;;;;;;5.43;2.90;;;15.30;79.20;;;;;;4944640;29;20058;-70
2021/09/17 06:58:29;;;;;;;7.63;3.58;;;15.30;79.30;;;;;;4945417;29;20492;-70
2021/09/17 07:00:55;;;;;;;6.75;3.50;;;15.50;79.30;;;;;;4945029;29;20023;-70
2021/09/17 07:03:21;;;;;;;8.40;3.45;;;15.50;78.90;;;;;;4944492;29;20061;-69
2021/09/17 07:05:46;;;;;;;5.35;3.30;;;15.40;77.90;;;;;;4945628;29;20646;-69
2021/09/17 07:08:13;;;;;;;5.72;3.40;;;15.30;78.60;;;;;;4944944;29;20114;-69
2021/09/17 07:10:39;;;;;;;5.90;3.35;;;15.30;79.10;;;;;;4942153;29;20484;-70
2021/09/17 07:13:06;;;;;;;8.32;3.92;;;15.40;79.20;;;;;;4947932;29;20048;-70
2021/09/17 07:15:31;;;;;;;7.85;3.70;;;15.50;78.60;;;;;;4944024;29;20550;-70
2021/09/17 07:17:57;;;;;;;8.75;4.15;;;15.50;78.70;;;;;;4947352;29;20147;-70
2021/09/17 07:20:23;;;;;;;8.60;4.03;;;15.50;79.00;;;;;;4920501;29;20027;-70
2021/09/17 07:22:49;;;;;;;8.02;4.40;;;15.70;79.30;;;;;;4944789;29;20030;-70
2021/09/17 07:25:16;;;;;;;9.23;4.45;;;15.90;78.90;;;;;;4941769;29;20102;-70
2021/09/17 07:27:41;;;;;;;7.93;4.50;;;16.20;79.20;;;;;;4947210;29;20027;-70
2021/09/17 07:30:08;;;;;;;9.35;4.55;;;16.50;79.00;;;;;;4953507;29;20024;-69
2021/09/17 07:32:34;;;;;;;5.82;3.53;;;16.80;78.90;;;;;;4948897;29;20420;-69
2021/09/17 07:35:00;;;;;;;6.95;4.28;;;17.10;78.30;;;;;;4943948;29;20027;-70
2021/09/17 07:37:26;;;;;;;8.38;4.50;;;17.40;77.80;;;;;;4862451;29;20039;-70
2021/09/17 07:39:52;;;;;;;7.78;4.32;;;17.70;77.00;;;;;;4870174;28;21016;-69
2021/09/17 07:42:18;;;;;;;7.15;4.32;;;17.90;76.00;;;;;;4896399;29;20027;-68
2021/09/17 07:44:44;;;;;;;9.05;4.40;;;18.00;75.50;;;;;;4907559;29;20972;-70
2021/09/17 07:47:10;;;;;;;8.85;4.63;;;18.20;75.60;;;;;;4909347;29;20464;-69
2021/09/17 07:49:36;;;;;;;8.15;4.80;;;18.40;75.10;;;;;;4923036;29;20034;-69
2021/09/17 07:52:02;;;;;;;7.80;4.75;;;18.50;74.00;;;;;;4930360;29;20020;-69
2021/09/17 07:54:28;;;;;;;9.18;4.63;;;18.50;74.20;;;;;;4925145;29;20039;-70
2021/09/17 07:56:54;;;;;;;8.45;4.88;;;18.70;74.50;;;;;;4924529;29;20020;-69
2021/09/17 07:59:20;;;;;;;7.20;4.63;;;18.90;74.10;;;;;;4953517;29;20038;-70
2021/09/17 08:01:46;;;;;;;8.77;5.30;;;18.90;72.70;;;;;;4949438;29;20031;-71
2021/09/17 08:04:12;;;;;;;7.60;5.15;;;18.70;72.40;;;;;;4929001;29;20451;-70
2021/09/17 08:06:38;;;;;;;9.32;5.70;;;18.50;72.20;;;;;;4946734;29;20031;-70
2021/09/17 08:09:06;;;;;;;8.35;5.07;;;18.10;72.50;;;;;;4949669;29;20312;-71
2021/09/17 08:11:33;;;;;;;8.40;5.05;;;18.00;73.40;;;;;;4953682;29;20023;-70
2021/09/17 08:13:59;;;;;;;7.80;5.05;;;18.10;74.40;;;;;;4954188;29;20043;-71
2021/09/17 08:16:24;;;;;;;7.95;5.25;;;18.20;74.50;;;;;;4936307;29;20035;-71
2021/09/17 08:18:50;;;;;;;8.60;5.30;;;18.30;74.30;;;;;;4953562;29;20042;-71
2021/09/17 08:21:17;;;;;;;8.90;5.10;;;18.40;75.00;;;;;;4953278;29;20495;-71
2021/09/17 08:23:44;;;;;;;8.85;5.90;;;18.70;75.40;;;;;;4953597;29;20058;-69
2021/09/17 08:26:09;;;;;;;9.13;5.78;;;18.80;74.40;;;;;;4936704;29;20028;-70
2021/09/17 08:28:35;;;;;;;8.95;6.30;;;18.70;73.30;;;;;;4953875;29;20089;-70
2021/09/17 08:31:03;;;;;;;8.38;6.38;;;18.70;74.00;;;;;;4953410;29;20027;-70
2021/09/17 08:33:32;;;;;;;6.97;5.13;;;18.90;74.90;;;;;;4952580;29;20058;-70
2021/09/17 08:35:59;;;;;;;7.55;5.35;;;19.20;73.80;;;;;;4953049;29;20031;-71
2021/09/17 08:38:24;;;;;;;7.00;5.60;;;19.50;74.30;;;;;;4953287;29;20065;-70
2021/09/17 08:40:54;;;;;;;7.93;5.65;;;19.80;73.70;;;;;;4953882;29;20062;-70
2021/09/17 08:43:21;;;;;;;6.38;4.97;;;20.00;72.20;;;;;;4953177;29;20571;-71
2021/09/17 08:45:47;;;;;;;7.38;5.85;;;20.10;72.70;;;;;;4952885;29;20078;-71
2021/09/17 08:48:14;;;;;;;8.60;5.57;;;20.10;71.30;;;;;;4953350;29;20114;-71
2021/09/17 08:50:40;;;;;;;6.28;5.20;;;20.00;72.20;;;;;;4952845;28;20033;-70
2021/09/17 08:53:06;;;;;;;6.03;4.78;;;20.40;73.50;;;;;;4940476;29;20039;-69
2021/09/17 08:55:32;;;;;;;6.90;4.97;;;21.10;73.00;;;;;;4939678;29;20031;-69
2021/09/17 08:57:58;;;;;;;5.55;4.30;;;21.40;71.00;;;;;;4956711;29;20459;-69
2021/09/17 09:00:27;;;;;;;5.80;4.43;;;21.80;71.60;;;;;;4956201;29;20122;-70
2021/09/17 09:02:57;;;;;;;6.53;4.72;;;22.10;69.20;;;;;;4949329;29;20503;-73
2021/09/17 09:05:41;;;;;;;5.85;4.65;;;22.20;68.00;;;;;;4941267;29;20028;-71
2021/09/17 09:08:08;;;;;;;6.85;4.05;;;22.40;69.00;;;;;;4953521;29;20024;-69
2021/09/17 09:10:34;;;;;;;8.00;4.95;;;22.60;67.50;;;;;;4956666;29;20023;-69
2021/09/17 09:13:05;;;;;;;5.18;3.97;;;22.60;64.40;;;;;;4946530;29;20527;-72
2021/09/17 09:15:35;;;;;;;7.10;4.55;;;22.70;67.50;;;;;;4947391;29;20697;-73
2021/09/17 09:18:05;;;;;;;7.32;3.85;;;22.70;65.20;;;;;;4947232;29;20066;-72
2021/09/17 09:20:33;;;;;;;4.82;4.07;;;22.80;65.40;;;;;;4953030;29;20024;-73
2021/09/17 09:23:21;;;;;;;5.18;3.47;;;22.90;65.70;;;;;;4939388;29;20042;-73
2021/09/17 09:25:52;;;;;;;6.35;3.80;;;22.90;65.80;;;;;;4939351;29;20042;-72
2021/09/17 09:28:20;;;;;;;5.03;3.35;;;22.80;65.40;;;;;;4940028;29;20079;-70
2021/09/17 09:30:46;;;;;;;8.07;4.80;;;22.90;66.00;;;;;;4940846;29;20106;-71
2021/09/17 09:33:34;;;;;;;6.88;4.07;;;23.00;63.30;;;;;;4942849;29;20163;-72
2021/09/17 09:36:08;;;;;;;4.95;3.20;;;23.10;66.40;;;;;;4940891;29;20416;-72
2021/09/17 09:38:42;;;;;;;5.28;2.83;;;23.30;65.10;;;;;;4936195;29;20071;-71
2021/09/17 09:41:14;;;;;;;3.40;2.90;;;23.20;64.80;;;;;;4951541;29;20094;-73
2021/09/17 09:43:48;;;;;;;3.22;2.35;;;23.30;64.60;;;;;;4941064;29;20087;-73
2021/09/17 09:46:41;;;;;;;3.80;2.60;;;23.50;65.00;;;;;;4942571;29;20027;-72
2021/09/17 09:49:25;;;;;;;4.30;2.50;;;23.60;63.20;;;;;;4938819;29;20036;-72
2021/09/17 09:52:00;;;;;;;4.82;2.97;;;23.70;64.00;;;;;;4940276;29;20114;-73
2021/09/17 09:54:29;;;;;;;3.53;3.03;;;23.90;64.60;;;;;;4930142;29;20047;-73
2021/09/17 09:56:56;;;;;;;3.15;2.65;;;23.90;59.80;;;;;;4919387;29;20019;-73
2021/09/17 09:59:33;;;;;;;3.13;2.50;;;23.70;61.60;;;;;;4919522;29;20042;-72
2021/09/17 10:02:02;;;;;;;3.83;2.35;;;23.80;62.20;;;;;;4948854;29;20035;-72
2021/09/17 10:04:31;;;;;;;2.45;1.83;;;23.90;60.40;;;;;;4922741;29;20036;-72
2021/09/17 10:07:04;;;;;;;3.38;1.80;;;24.10;62.10;;;;;;4938149;29;20378;-72
2021/09/17 10:09:31;;;;;;;2.10;1.35;;;24.20;58.10;;;;;;4921572;29;20505;-68
2021/09/17 10:11:59;;;;;;;2.33;1.67;;;24.00;59.50;;;;;;4938390;29;20032;-70
2021/09/17 10:14:27;;;;;;;2.58;1.20;;;24.10;60.40;;;;;;4953153;29;20519;-73
2021/09/17 10:16:54;;;;;;;2.40;1.45;;;24.50;59.70;;;;;;4940216;29;20030;-71
2021/09/17 10:19:20;;;;;;;3.38;1.15;;;24.60;59.60;;;;;;4939414;29;20046;-71
2021/09/17 10:21:55;;;;;;;1.50;1.08;;;24.60;57.00;;;;;;4940330;29;20584;-69
2021/09/17 10:24:27;;;;;;;1.40;1.08;;;24.60;58.00;;;;;;4923837;29;20082;-69
2021/09/17 10:27:06;;;;;;;1.00;0.90;;;24.90;58.50;;;;;;4941156;29;20037;-69
2021/09/17 10:29:41;;;;;;;1.27;0.90;;;25.20;57.60;;;;;;4945577;29;20495;-69
2021/09/17 10:32:27;;;;;;;2.90;1.00;;;25.60;57.60;;;;;;4947756;29;20027;-70
2021/09/17 10:35:10;;;;;;;1.85;0.88;;;25.60;55.30;;;;;;4933181;29;20111;-67
2021/09/17 10:37:56;;;;;;;1.25;1.15;;;26.10;57.70;;;;;;4931599;29;20036;-68
2021/09/17 10:40:52;;;;;;;1.48;1.10;;;25.80;52.60;;;;;;4934552;29;20397;-68
2021/09/17 10:43:20;;;;;;;2.15;1.08;;;26.20;54.10;;;;;;4934142;29;20034;-68
2021/09/17 10:45:51;;;;;;;1.92;1.10;;;26.50;52.30;;;;;;4935779;29;20063;-69
2021/09/17 10:48:41;;;;;;;1.58;1.20;;;27.00;53.70;;;;;;4935455;29;20382;-68
2021/09/17 10:51:26;;;;;;;2.17;1.10;;;27.10;51.00;;;;;;4911211;29;20102;-69
2021/09/17 10:54:06;;;;;;;1.58;1.00;;;27.60;49.60;;;;;;4922082;29;20560;-69
2021/09/17 10:57:05;;;;;;;1.17;0.77;;;28.10;52.00;;;;;;4935082;29;20555;-69
2021/09/17 10:59:44;;;;;;;1.98;1.70;;;28.30;51.60;;;;;;4935188;29;20020;-70
2021/09/17 11:02:10;;;;;;;1.15;0.90;;;28.00;50.00;;;;;;4921593;29;20051;-69
2021/09/17 11:04:42;;;;;;;2.20;0.88;;;28.30;48.00;;;;;;4928283;29;20027;-69
2021/09/17 11:07:17;;;;;;;;;;;28.20;47.80;;;;;;4932533;29;20497;-69
2021/09/17 11:09:44;;;;;;;2.25;0.98;;;28.70;49.60;;;;;;4931068;29;20069;-67
2021/09/17 11:12:15;;;;;;;1.10;0.90;;;28.70;43.60;;;;;;4924249;29;20497;-69
2021/09/17 11:14:41;;;;;;;1.17;1.00;;;28.50;43.10;;;;;;4928774;29;20027;-69
2021/09/17 11:17:06;;;;;;;2.40;1.15;;;28.70;42.90;;;;;;4935332;29;20032;-71
2021/09/17 11:19:33;;;;;;;2.00;1.33;;;29.10;43.90;;;;;;4934823;29;20028;-71
2021/09/17 11:22:02;;;;;;;2.22;1.23;;;29.10;40.50;;;;;;4935064;29;20027;-70
2021/09/17 11:24:29;;;;;;;3.33;1.05;;;28.80;41.70;;;;;;4934930;29;20028;-73
2021/09/17 11:26:57;;;;;;;1.85;1.10;;;28.30;42.70;;;;;;4934937;29;20024;-70
2021/09/17 11:29:26;;;;;;;2.25;1.13;;;28.30;42.80;;;;;;4933962;29;20023;-72
2021/09/17 11:32:01;;;;;;;1.25;0.90;;;28.40;43.80;;;;;;4918977;29;20032;-73
2021/09/17 11:34:32;;;;;;;1.35;0.90;;;28.80;45.10;;;;;;4950813;29;20129;-73
2021/09/17 11:37:03;;;;;;;1.25;0.85;;;28.10;42.50;;;;;;4953554;29;20027;-72
2021/09/17 11:39:38;;;;;;;2.42;0.93;;;28.00;44.80;;;;;;4953915;29;20038;-71
2021/09/17 11:42:06;;;;;;;1.00;0.70;;;27.90;43.90;;;;;;4936567;29;20126;-71
2021/09/17 11:44:37;;;;;;;1.60;0.90;;;28.60;44.60;;;;;;4953706;29;20023;-71
2021/09/17 11:47:06;;;;;;;1.17;0.70;;;29.50;45.30;;;;;;4954125;29;20062;-72
2021/09/17 11:49:37;;;;;;;1.00;0.90;;;30.60;43.50;;;;;;4953054;29;20031;-71
2021/09/17 11:52:08;;;;;;;1.15;1.05;;;32.20;42.60;;;;;;4953353;29;20429;-71
2021/09/17 11:54:34;;;;;;;;;;;34.30;41.80;;;;;;4953809;29;20035;-72
2021/09/17 11:57:12;;;;;;;1.13;0.90;;;35.10;35.20;;;;;;4953760;29;19921;-72
2021/09/17 11:59:45;;;;;;;2.30;0.73;;;35.80;31.80;;;;;;4923010;29;20039;-72
2021/09/17 12:02:22;;;;;;;1.23;0.88;;;36.20;30.60;;;;;;4891818;29;20022;-72
2021/09/17 12:04:53;;;;;;;0.75;0.70;;;37.10;34.60;;;;;;4898815;29;20090;-72
2021/09/17 12:07:20;;;;;;;0.90;0.80;;;38.20;28.40;;;;;;4895976;29;20066;-70
2021/09/17 12:09:46;;;;;;;0.70;0.70;;;38.90;28.80;;;;;;4880089;29;20039;-73
2021/09/17 12:12:13;;;;;;;2.17;0.90;;;40.00;28.70;;;;;;4905348;29;20027;-72
2021/09/17 12:14:47;;;;;;;1.52;0.90;;;40.70;25.80;;;;;;4899368;29;20728;-71
2021/09/17 12:17:13;;;;;;;1.23;0.80;;;40.50;23.90;;;;;;4926215;29;20024;-70
2021/09/17 12:20:00;;;;;;;1.00;0.80;;;39.70;22.90;;;;;;4945295;29;20055;-72
2021/09/17 12:22:50;;;;;;;1.10;0.73;;;38.70;26.50;;;;;;4947971;29;20034;-72
2021/09/17 12:25:26;;;;;;;2.15;0.90;;;39.70;25.90;;;;;;4941925;29;20040;-71
2021/09/17 12:28:01;;;;;;;0.90;0.90;;;40.60;24.90;;;;;;4931875;29;20028;-72
2021/09/17 12:30:37;;;;;;;1.25;1.15;;;41.20;22.80;;;;;;4947285;29;20126;-72
2021/09/17 12:33:09;;;;;;;0.95;0.80;;;41.10;22.60;;;;;;4926558;29;20063;-72
2021/09/17 12:35:40;;;;;;;0.50;0.40;;;40.20;22.80;;;;;;4945584;29;20042;-71
2021/09/17 12:38:08;;;;;;;0.60;0.50;;;37.00;22.50;;;;;;4942964;29;20087;-71
2021/09/17 12:40:44;;;;;;;0.68;0.50;;;34.40;25.50;;;;;;4948432;29;20028;-71
2021/09/17 12:43:16;;;;;;;1.40;0.60;;;32.30;27.00;;;;;;4945006;29;20023;-72
2021/09/17 12:45:55;;;;;;;1.45;0.80;;;30.90;29.70;;;;;;4945151;29;20511;-70
2021/09/17 12:48:24;;;;;;;1.23;0.70;;;29.80;31.30;;;;;;4944513;29;20444;-70
2021/09/17 12:50:50;;;;;;;1.15;0.70;;;29.10;33.20;;;;;;4945217;29;20102;-70
2021/09/17 12:53:21;;;;;;;1.88;0.60;;;31.30;37.60;;;;;;4952617;29;20039;-70